Onweer radar Meer informatie blitzortung!


Regen radar Meer informatie rain snow radar


Bezoek onze andere website:

Template documentation
and downloads

And another site



Het weer levert geen direct gevaar op.    Er zijn geen waarschuwingen afgegeven.

METAR rapporten vliegvelden

   
EHRD - Rotterdam
Gewijzigd: 21-08-2018 01:25
Bewolking  
Bewolking  
   Wind: Oosten 5.6 km/h
Wind: Oosten 5.6 km/h
Temperatuur: 18°C
Dauwpunt: 16°C
Vochtigheid: 88%
Barometer: 1020 hPa
Bewolking: Overcast
Zicht: meer dan 10 km
Bewolking: Bewolking 4600 ft
EHRD 202325Z AUTO 10003KT 9999 OVC046 18/16 Q1020 NOSIG
EHAM - Amsterdam
Gewijzigd: 21-08-2018 01:25
Helder  
Helder  
   Wind: ZZO 5.6 km/h
Wind: ZZO 5.6 km/h
Temperatuur: 17°C
Dauwpunt: 16°C
Vochtigheid: 94%
Barometer: 1020 hPa
Zicht: meer dan 10 km
Bewolking: Helder ft
EHAM 202325Z 15003KT CAVOK 17/16 Q1020 NOSIG
EHEH - Eindhoven
Gewijzigd: 21-08-2018 01:25
Bewolking  
Bewolking  
   Wind: NW 5.6 km/h
Wind: NW 5.6 km/h
Temperatuur: 19°C
Dauwpunt: 16°C
Vochtigheid: 83%
Barometer: 1020 hPa
Bewolking: Overcast
Zicht: meer dan 10 km
Bewolking: Licht bewolkt 6300 ft,
Bewolking 6800 ft
EHEH 202325Z AUTO 32003KT 290V350 9999 FEW063 OVC068 19/16 Q1020 BLU
EHBK - Maastricht
Gewijzigd: 21-08-2018 01:25
Bewolking  
Bewolking  
   Wind: NW 1.9 km/h
Wind: NW 1.9 km/h
Temperatuur: 20°C
Dauwpunt: 17°C
Vochtigheid: 83%
Barometer: 1021 hPa
Bewolking: Overcast
Zicht: meer dan 10 km
Bewolking: Grotendeels bewolkt 2700 ft,
Bewolking 3000 ft
EHBK 202325Z AUTO 31001KT 9999 BKN027 OVC030 20/17 Q1021
EDDL - Brussel
Gewijzigd: 21-08-2018 01:50
Grotendeels bewolkt  
Grotendeels bewolkt  
   Wind: NO 3.7 km/h
Wind: NO 3.7 km/h
Temperatuur: 19°C
Dauwpunt: 16°C
Vochtigheid: 83%
Barometer: 1021 hPa
Bewolking: Mostly Cloudy
Zicht: meer dan 10 km
Bewolking: Licht bewolkt 3200 ft,
Grotendeels bewolkt 7000 ft
EDDL 202350Z 05002KT 9999 FEW032 BKN070 19/16 Q1021 NOSIG
EBOS - Dusseldorf
Gewijzigd: 21-08-2018 01:50
Grotendeels bewolkt  
Grotendeels bewolkt  
   Wind: ZZO 7.4 km/h
Wind: ZZO 7.4 km/h
Temperatuur: 16°C
Dauwpunt: 14°C
Vochtigheid: 88%
Barometer: 1021 hPa
Bewolking: Mostly Cloudy
Zicht: 9 km
Bewolking: Grotendeels bewolkt 4800 ft
EBOS 202350Z 15004KT 9000 BKN048 16/14 Q1021 NOSIG

Script ontwikkeld door  Saratoga-weather.org Aangepast voor de template door  Weerstation Leuven

U vindt ons ook hier:

Het Weer Aktueel

European Weather Network

Weather Underground

WeatherlinkIP

HAMweather, WeatherForYou, PWS Weather

Apparatuur in gebruik:

Weerstation
Davis VP2

Weerprogramma
Cumulus

Weercomputer
Zotac

Webleverancier
Quick Servers

Davis VP2

Cumulus

Zotac

Quick Servers